Diamond, Illinois
Current Conditions -  °F | °C
As of 7:55 AM on Saturday 22 Nov 2014 (Local Time) from KC09 Reporting Station
Drizzle Drizzle  
Wind Chill: 33°   Ceiling: 1400
Heat Index: 39°   Visibility: 5mi
Dew Point: 37°   Wind: 9mph
Humidity: 93%   Direction: 210°SSW
Pressure: 30.03"   Gusts: NA
Location:  41.2967°N, 88.2846°W
Report Text: KC09 221355Z AUTO 21008KT 5SM -DZ OVC014 04/03 A3003 RMK AO2 T00410030
Loading
Personal Weather Stations






























Interactive Weather Map New forecast layout! Learn more

10-Day Weather Forecast

Advertisements
Track Severe Weather on mobile